Time;durP1;ratioP1;P1;durP2;ratioP2;P2;SDS_P1;SDS_P2;PMS_P1;PMS_P2;Temp;Humidity;BMP_temperature;BMP_pressure;BME280_temperature;BME280_humidity;BME280_pressure;Samples;Min_cycle;Max_cycle;Signal;HPM_P1;HPM_P2
2023/07/22 05:56:45;;;;;;;;;;;;;;;17.00;67.16;99812.53;1087253;54;19943;-81
2023/07/22 05:57:46;;;;;;;;;;;;;;;17.05;66.74;99822.75;1087217;46;19943;-83
2023/07/22 05:58:49;;;;;;;;;;;;;;;17.15;66.52;99817.06;1087314;47;19943;-83
2023/07/22 05:59:50;;;;;;;;;;;;;;;17.20;66.39;99814.59;1087157;54;19939;-81
2023/07/22 06:00:55;;;;;;;;;;;;;;;17.24;66.26;99817.78;1087682;39;20328;-80
2023/07/22 06:01:56;;;;;;;;;;;;;;;17.25;66.26;99809.47;1087324;54;19942;-84
2023/07/22 06:03:07;;;;;;;;;;;;;;;17.25;65.88;99814.88;1087207;54;19966;-83
2023/07/22 06:04:11;;;;;;;;;;;;;;;17.12;65.69;99820.97;1088133;47;19982;-85
2023/07/22 06:07:07;;;;;;;;;;;;;;;17.20;65.86;99808.38;1091861;39;20131;-82
2023/07/22 06:08:08;;;;;;;;;;;;;;;17.26;65.71;99811.13;1087518;54;19942;-83
2023/07/22 06:09:09;;;;;;;;;;;;;;;17.36;65.40;99812.66;1087511;54;19946;-83
2023/07/22 06:10:13;;;;;;;;;;;;;;;17.43;65.23;99818.97;1087669;54;19943;-83
2023/07/22 06:11:14;;;;;;;;;;;;;;;17.46;65.23;99814.00;1087481;47;19938;-83
2023/07/22 06:12:20;;;;;;;;;;;;;;;17.37;65.51;99814.34;1087493;54;19973;-81
2023/07/22 06:13:21;;;;;;;;;;;;;;;17.39;65.20;99820.38;1087276;54;20296;-82
2023/07/22 06:14:24;;;;;;;;;;;;;;;17.36;65.41;99820.78;1087341;54;19951;-81
2023/07/22 06:15:25;;;;;;;;;;;;;;;17.39;65.31;99817.66;1087207;54;19943;-83
2023/07/22 06:16:28;;;;;;;;;;;;;;;17.40;65.20;99824.75;1087469;54;19927;-83
2023/07/22 06:17:29;;;;;;;;;;;;;;;17.40;65.34;99822.91;1087273;47;19965;-82
2023/07/22 06:18:33;;;;;;;;;;;;;;;17.46;65.03;99822.09;1087302;47;19939;-82
2023/07/22 06:19:34;;;;;;;;;;;;;;;17.45;64.94;99820.44;1087340;47;19973;-81
2023/07/22 06:20:38;;;;;;;;;;;;;;;17.49;65.08;99820.88;1087259;54;19990;-80
2023/07/22 06:21:39;;;;;;;;;;;;;;;17.55;65.04;99825.50;1087429;54;19942;-83
2023/07/22 06:22:42;;;;;;;;;;;;;;;17.67;64.71;99833.06;1087386;54;19942;-82
2023/07/22 06:23:43;;;;;;;;;;;;;;;17.76;64.53;99829.16;1087604;54;19965;-80
2023/07/22 06:24:47;;;;;;;;;;;;;;;17.85;64.46;99829.88;1087606;54;19942;-82
2023/07/22 06:25:48;;;;;;;;;;;;;;;17.91;64.18;99827.22;1087275;47;19938;-82
2023/07/22 06:26:51;;;;;;;;;;;;;;;17.98;64.08;99830.00;1087089;54;19942;-81
2023/07/22 06:28:01;;;;;;;;;;;;;;;18.02;63.94;99825.03;1087559;54;19949;-81
2023/07/22 06:29:07;;;;;;;;;;;;;;;18.08;63.73;99832.31;1087146;47;19938;-82
2023/07/22 06:30:13;;;;;;;;;;;;;;;18.18;63.48;99830.09;1086972;51;19945;-81
2023/07/22 06:31:18;;;;;;;;;;;;;;;18.18;63.02;99819.28;1086972;47;19947;-81
2023/07/22 06:32:18;;;;;;;;;;;;;;;18.20;63.06;99832.59;1087161;47;19970;-83
2023/07/22 06:33:22;;;;;;;;;;;;;;;18.18;62.91;99821.16;1087269;47;19943;-83
2023/07/22 06:34:33;;;;;;;;;;;;;;;18.13;62.70;99827.16;1087545;54;19927;-83
2023/07/22 06:35:42;;;;;;;;;;;;;;;18.09;62.68;99825.88;1087515;54;20215;-83
2023/07/22 06:36:44;;;;;;;;;;;;;;;18.13;62.61;99826.31;1087232;47;19966;-84
2023/07/22 08:22:06;;;;;;;;;;;;;;;22.87;48.08;99826.50;1087778;54;19939;-89
2023/07/22 08:23:07;;;;;;;;;;;;;;;22.85;47.86;99815.03;1087907;54;19943;-88
2023/07/22 08:24:10;;;;;;;;;;;;;;;22.74;48.31;99824.81;1087745;47;19973;-89
2023/07/22 08:25:12;;;;;;;;;;;;;;;22.77;48.49;99819.97;1087611;54;19965;-89
2023/07/22 08:26:17;;;;;;;;;;;;;;;22.82;48.10;99823.66;1087903;54;19966;-89
2023/07/22 08:27:18;;;;;;;;;;;;;;;22.92;48.15;99816.81;1087640;46;20072;-87
2023/07/22 08:28:19;;;;;;;;;;;;;;;22.77;48.12;99826.22;1088124;54;19975;-87
2023/07/22 08:29:22;;;;;;;;;;;;;;;22.99;47.70;99821.13;1087817;47;19962;-88
2023/07/22 08:30:23;;;;;;;;;;;;;;;22.93;48.24;99813.84;1087771;54;19970;-88
2023/07/22 08:31:28;;;;;;;;;;;;;;;22.99;48.23;99818.38;1087926;54;19966;-90
2023/07/22 08:32:29;;;;;;;;;;;;;;;22.84;47.79;99821.53;1087914;54;19942;-89
2023/07/22 08:33:33;;;;;;;;;;;;;;;22.96;47.49;99818.00;1087918;54;20017;-88
2023/07/22 08:34:33;;;;;;;;;;;;;;;23.02;46.40;99817.09;1087701;46;19942;-87
2023/07/22 08:35:37;;;;;;;;;;;;;;;22.75;46.86;99825.66;1087769;54;19954;-88
2023/07/22 08:36:38;;;;;;;;;;;;;;;23.00;46.40;99827.38;1087756;54;19942;-89
2023/07/22 08:37:44;;;;;;;;;;;;;;;23.25;45.71;99810.88;1087678;54;19985;-88
2023/07/22 08:38:44;;;;;;;;;;;;;;;23.44;45.94;99819.78;1087703;54;19949;-89
2023/07/22 08:39:48;;;;;;;;;;;;;;;23.51;45.17;99815.06;1087716;54;19950;-90
2023/07/22 08:40:49;;;;;;;;;;;;;;;23.20;46.00;99814.31;1087399;47;19954;-90
2023/07/22 08:41:53;;;;;;;;;;;;;;;23.24;45.82;99814.69;1087458;54;19946;-89
2023/07/22 08:42:55;;;;;;;;;;;;;;;23.02;45.83;99822.53;1087655;54;19966;-87
2023/07/22 08:44:01;;;;;;;;;;;;;;;22.98;46.31;99816.72;1087627;47;19942;-88
2023/07/22 08:45:05;;;;;;;;;;;;;;;23.15;46.01;99819.59;1087482;46;19959;-89
2023/07/22 08:46:07;;;;;;;;;;;;;;;23.46;45.35;99820.41;1087607;54;20035;-89
2023/07/22 08:47:12;;;;;;;;;;;;;;;23.51;45.46;99814.22;1088100;47;19943;-89
2023/07/22 08:48:15;;;;;;;;;;;;;;;23.69;45.26;99810.56;1087668;47;19969;-89
2023/07/22 08:49:19;;;;;;;;;;;;;;;23.91;44.72;99808.06;1087095;47;19969;-85
2023/07/22 08:50:20;;;;;;;;;;;;;;;23.96;44.83;99805.47;1087243;47;20919;-88
2023/07/22 08:51:28;;;;;;;;;;;;;;;24.00;44.28;99803.09;1087081;47;19973;-90
2023/07/22 08:52:29;;;;;;;;;;;;;;;23.98;44.02;99802.50;1087121;47;20019;-89
2023/07/22 08:53:37;;;;;;;;;;;;;;;24.23;43.79;99793.19;1087209;54;19947;-88
2023/07/22 08:54:38;;;;;;;;;;;;;;;24.16;43.94;99803.44;1089187;39;20288;-89
2023/07/22 08:55:42;;;;;;;;;;;;;;;24.33;43.81;99798.03;1087111;54;19949;-88
2023/07/22 08:56:43;;;;;;;;;;;;;;;24.41;43.78;99793.03;1086976;54;19958;-88
2023/07/22 08:57:47;;;;;;;;;;;;;;;24.57;43.52;99796.03;1086927;47;20734;-88
2023/07/22 08:58:49;;;;;;;;;;;;;;;24.66;43.41;99802.78;1087038;47;19939;-88
2023/07/22 08:59:53;;;;;;;;;;;;;;;24.64;42.96;99795.91;1087120;46;20073;-87
2023/07/22 09:00:54;;;;;;;;;;;;;;;24.80;42.56;99795.13;1090843;39;20715;-85
2023/07/22 09:01:57;;;;;;;;;;;;;;;24.81;42.84;99793.25;1087117;47;19939;-87
2023/07/22 09:02:58;;;;;;;;;;;;;;;24.86;42.73;99796.06;1087237;47;19939;-90
2023/07/22 09:04:02;;;;;;;;;;;;;;;24.98;42.10;99794.09;1087282;54;21063;-88
2023/07/22 09:05:03;;;;;;;;;;;;;;;25.09;42.13;99795.09;1087375;54;19966;-90
2023/07/22 09:06:04;;;;;;;;;;;;;;;25.21;41.82;99795.03;1086944;54;19954;-87
2023/07/22 09:07:08;;;;;;;;;;;;;;;25.06;42.21;99796.44;1091505;39;20724;-86
2023/07/22 09:08:09;;;;;;;;;;;;;;;25.30;41.21;99790.81;1086894;47;19946;-88
2023/07/22 09:09:15;;;;;;;;;;;;;;;25.41;41.12;99791.03;1086887;54;19947;-86
2023/07/22 09:10:16;;;;;;;;;;;;;;;25.38;40.43;99790.41;1086944;54;19943;-85
2023/07/22 09:11:21;;;;;;;;;;;;;;;25.19;41.37;99789.81;1086914;47;19954;-88
2023/07/22 09:12:22;;;;;;;;;;;;;;;25.39;41.48;99793.94;1087974;39;20730;-87
2023/07/22 09:13:27;;;;;;;;;;;;;;;25.10;41.49;99785.00;1087039;54;19943;-86
2023/07/22 09:14:28;;;;;;;;;;;;;;;24.80;42.08;99789.66;1086837;47;19943;-87
2023/07/22 09:15:29;;;;;;;;;;;;;;;24.91;41.80;99788.78;1086997;54;19942;-86
2023/07/22 09:16:32;;;;;;;;;;;;;;;24.53;42.08;99786.69;1086882;54;19943;-85
2023/07/22 09:17:33;;;;;;;;;;;;;;;24.42;42.36;99785.63;1086764;54;19943;-87
2023/07/22 09:18:36;;;;;;;;;;;;;;;24.24;42.18;99784.75;1086736;47;20029;-89
2023/07/22 09:19:38;;;;;;;;;;;;;;;24.32;42.53;99786.28;1088809;39;20610;-88
2023/07/22 09:20:42;;;;;;;;;;;;;;;24.53;42.21;99781.22;1086802;47;20011;-86
2023/07/22 09:21:44;;;;;;;;;;;;;;;24.90;41.81;99780.84;1086963;54;19950;-87
2023/07/22 09:22:48;;;;;;;;;;;;;;;25.23;41.09;99780.03;1088477;39;20779;-87
2023/07/22 09:23:49;;;;;;;;;;;;;;;25.25;41.09;99778.97;1086886;54;19999;-85
2023/07/22 09:24:55;;;;;;;;;;;;;;;24.98;41.64;99779.63;1086835;46;19945;-87
2023/07/22 09:26:08;;;;;;;;;;;;;;;24.67;41.69;99781.75;1086884;47;19954;-88
2023/07/22 09:27:11;;;;;;;;;;;;;;;24.59;42.06;99780.25;1086892;54;19982;-86
2023/07/22 09:28:12;;;;;;;;;;;;;;;24.99;41.61;99778.53;1086896;54;19943;-86
2023/07/22 09:29:15;;;;;;;;;;;;;;;24.62;41.94;99785.22;1086852;47;19963;-87
2023/07/22 09:30:23;;;;;;;;;;;;;;;25.04;41.56;99776.69;1086957;54;19943;-86
2023/07/22 09:31:27;;;;;;;;;;;;;;;24.51;42.07;99776.03;1086815;54;20257;-84
2023/07/22 09:32:35;;;;;;;;;;;;;;;24.56;42.21;99767.91;1089741;39;20591;-85
2023/07/22 09:33:38;;;;;;;;;;;;;;;24.59;42.55;99767.44;1086711;54;19943;-84
2023/07/22 09:34:53;;;;;;;;;;;;;;;24.57;42.16;99771.44;1086974;54;19942;-85
2023/07/22 09:35:57;;;;;;;;;;;;;;;25.01;41.45;99766.28;1086863;54;19943;-87
2023/07/22 09:37:00;;;;;;;;;;;;;;;25.18;41.17;99766.25;1086985;54;19947;-87
2023/07/22 09:38:03;;;;;;;;;;;;;;;25.30;41.16;99763.47;1087230;54;20666;-85
2023/07/22 09:39:04;;;;;;;;;;;;;;;25.70;40.30;99762.44;1086878;47;19939;-87
2023/07/22 09:40:19;;;;;;;;;;;;;;;26.00;39.28;99766.66;1086934;54;20010;-88
2023/07/22 09:41:20;;;;;;;;;;;;;;;26.06;39.89;99759.34;1086944;47;20705;-86
2023/07/22 09:42:26;;;;;;;;;;;;;;;26.01;39.36;99762.84;1087025;54;19949;-86
2023/07/22 09:43:27;;;;;;;;;;;;;;;25.72;39.77;99754.00;1088447;39;20827;-87
2023/07/22 09:44:31;;;;;;;;;;;;;;;25.83;39.17;99754.94;1087014;47;19960;-86
2023/07/22 09:45:33;;;;;;;;;;;;;;;25.96;39.62;99754.59;1086802;47;19939;-86
2023/07/22 09:46:36;;;;;;;;;;;;;;;25.68;39.39;99759.13;1086807;54;19951;-88
2023/07/22 09:47:39;;;;;;;;;;;;;;;25.85;39.38;99753.59;1086758;54;20044;-88
2023/07/22 09:48:44;;;;;;;;;;;;;;;26.12;39.01;99747.41;1087336;39;21238;-86
2023/07/22 09:49:45;;;;;;;;;;;;;;;26.28;38.63;99745.66;1086947;47;20367;-87
2023/07/22 09:50:49;;;;;;;;;;;;;;;26.26;38.25;99745.09;1086965;47;19939;-87
2023/07/22 09:51:51;;;;;;;;;;;;;;;26.34;38.43;99743.81;1086884;46;20747;-88
2023/07/22 09:52:55;;;;;;;;;;;;;;;26.22;38.42;99746.69;1086669;47;19938;-86
2023/07/22 09:53:59;;;;;;;;;;;;;;;26.40;37.68;99744.72;1086774;47;19939;-85
2023/07/22 09:55:03;;;;;;;;;;;;;;;26.06;37.97;99753.06;1086810;47;19946;-85
2023/07/22 09:56:06;;;;;;;;;;;;;;;26.02;37.80;99744.53;1086730;54;19976;-86
2023/07/22 09:57:09;;;;;;;;;;;;;;;26.05;37.68;99745.91;1086660;54;19943;-87
2023/07/22 09:58:10;;;;;;;;;;;;;;;26.13;37.79;99737.28;1086697;47;19946;-85
2023/07/22 09:59:14;;;;;;;;;;;;;;;26.40;37.11;99733.75;1086766;54;19942;-86
2023/07/22 10:00:16;;;;;;;;;;;;;;;26.45;37.33;99744.78;1086686;47;19963;-85
2023/07/22 10:01:19;;;;;;;;;;;;;;;26.51;36.82;99738.25;1086680;54;20010;-85
2023/07/22 10:02:24;;;;;;;;;;;;;;;26.49;36.94;99734.94;1086693;46;19939;-85
2023/07/22 10:03:28;;;;;;;;;;;;;;;26.28;36.93;99740.19;1086829;54;19943;-86
2023/07/22 10:04:35;;;;;;;;;;;;;;;26.20;37.10;99732.44;1086762;54;19942;-86
2023/07/22 10:05:36;;;;;;;;;;;;;;;26.32;36.66;99740.50;1086528;47;19938;-87
2023/07/22 10:06:41;;;;;;;;;;;;;;;26.18;36.86;99731.03;1086794;54;19943;-85
2023/07/22 10:07:45;;;;;;;;;;;;;;;26.06;37.24;99733.88;1086750;54;19972;-88
2023/07/22 10:08:50;;;;;;;;;;;;;;;25.84;37.36;99740.19;1086743;46;19961;-86
2023/07/22 10:09:54;;;;;;;;;;;;;;;25.60;37.86;99740.38;1086744;47;19939;-89
2023/07/22 10:10:58;;;;;;;;;;;;;;;25.72;37.79;99743.03;1086763;47;19939;-84
2023/07/22 10:12:03;;;;;;;;;;;;;;;25.81;37.90;99740.69;1086701;47;19942;-88
2023/07/22 10:13:07;;;;;;;;;;;;;;;25.58;38.11;99739.00;1086808;47;20774;-85
2023/07/22 10:14:12;;;;;;;;;;;;;;;25.49;37.50;99741.34;1086828;47;19950;-85
2023/07/22 10:15:17;;;;;;;;;;;;;;;25.61;37.52;99730.28;1086757;54;20352;-87
2023/07/22 10:16:18;;;;;;;;;;;;;;;25.69;36.89;99733.41;1086769;46;20304;-86
2023/07/22 10:17:19;;;;;;;;;;;;;;;25.70;37.04;99736.97;1087716;39;20839;-88
2023/07/22 10:18:24;;;;;;;;;;;;;;;25.72;36.43;99731.25;1086793;47;19961;-85
2023/07/22 10:19:25;;;;;;;;;;;;;;;25.76;36.77;99732.41;1086732;54;19985;-86
2023/07/22 10:20:34;;;;;;;;;;;;;;;25.81;36.03;99729.72;1086772;54;19942;-84
2023/07/22 10:21:35;;;;;;;;;;;;;;;25.76;35.92;99727.75;1086540;54;19942;-86
2023/07/22 10:22:39;;;;;;;;;;;;;;;25.35;35.69;99732.63;1086665;47;20729;-85
2023/07/22 10:23:40;;;;;;;;;;;;;;;25.44;35.86;99725.69;1086084;47;19962;-86
2023/07/22 10:24:44;;;;;;;;;;;;;;;25.38;35.61;99729.38;1086093;54;19938;-89
2023/07/22 10:25:46;;;;;;;;;;;;;;;25.41;35.21;99728.09;1086735;47;19938;-86
2023/07/22 10:26:51;;;;;;;;;;;;;;;25.54;35.05;99727.72;1086587;47;19951;-87
2023/07/22 10:27:54;;;;;;;;;;;;;;;25.51;34.91;99725.47;1086772;47;19946;-87
2023/07/22 10:28:58;;;;;;;;;;;;;;;25.47;35.20;99722.44;1086768;47;19942;-88
2023/07/22 10:29:59;;;;;;;;;;;;;;;25.32;35.64;99724.91;1086837;54;19942;-88
2023/07/22 10:31:02;;;;;;;;;;;;;;;25.14;35.76;99723.25;1086936;47;19954;-88
2023/07/22 10:32:04;;;;;;;;;;;;;;;25.35;35.33;99721.69;1086974;47;20016;-88
2023/07/22 10:33:16;;;;;;;;;;;;;;;25.61;35.42;99722.06;1087153;47;19939;-85
2023/07/22 10:34:20;;;;;;;;;;;;;;;25.68;34.62;99723.56;1087467;54;19966;-85
2023/07/22 10:35:25;;;;;;;;;;;;;;;26.02;34.44;99719.88;1087418;47;20006;-87
2023/07/22 10:36:29;;;;;;;;;;;;;;;26.17;34.12;99721.97;1087354;39;20014;-86
2023/07/22 10:37:32;;;;;;;;;;;;;;;26.11;33.93;99712.91;1086843;54;20264;-88
2023/07/22 10:38:34;;;;;;;;;;;;;;;26.07;34.22;99711.72;1086700;47;20002;-86
2023/07/22 10:39:37;;;;;;;;;;;;;;;26.34;33.76;99710.94;1087497;31;20926;-87
2023/07/22 10:40:45;;;;;;;;;;;;;;;26.11;33.68;99706.56;1086936;54;19942;-86
2023/07/22 10:41:49;;;;;;;;;;;;;;;26.25;33.53;99713.34;1086857;47;19942;-86
2023/07/22 10:42:57;;;;;;;;;;;;;;;26.42;33.47;99707.72;1086740;54;19966;-86
2023/07/22 10:44:01;;;;;;;;;;;;;;;26.35;33.39;99714.53;1086777;54;20003;-87
2023/07/22 10:45:02;;;;;;;;;;;;;;;26.33;33.70;99705.72;1086709;47;19945;-87
2023/07/22 10:46:08;;;;;;;;;;;;;;;26.06;34.03;99707.31;1088136;39;20729;-85
2023/07/22 10:47:09;;;;;;;;;;;;;;;25.98;34.10;99714.06;1088597;39;20241;-85
2023/07/22 10:48:14;;;;;;;;;;;;;;;25.67;34.18;99708.22;1086696;47;19950;-85
2023/07/22 10:49:16;;;;;;;;;;;;;;;25.57;34.24;99709.97;1086719;47;19969;-87
2023/07/22 10:50:21;;;;;;;;;;;;;;;25.36;34.10;99706.94;1086818;54;19968;-87
2023/07/22 10:51:22;;;;;;;;;;;;;;;25.34;34.27;99707.16;1086758;54;19950;-86
2023/07/22 10:52:41;;;;;;;;;;;;;;;25.12;34.58;99714.50;1086724;54;19946;-88
2023/07/22 10:53:43;;;;;;;;;;;;;;;25.11;34.41;99699.16;1086763;47;19946;-87
2023/07/22 10:54:47;;;;;;;;;;;;;;;25.08;34.73;99709.53;1086726;39;20159;-84
2023/07/22 10:56:03;;;;;;;;;;;;;;;24.90;35.10;99707.03;1086790;47;19946;-86
2023/07/22 10:57:04;;;;;;;;;;;;;;;25.03;35.02;99703.94;1086633;47;21159;-88
2023/07/22 10:58:10;;;;;;;;;;;;;;;25.14;34.71;99702.22;1086597;54;19949;-86
2023/07/22 10:59:11;;;;;;;;;;;;;;;25.12;34.86;99698.09;1086897;39;20819;-87
2023/07/22 11:00:20;;;;;;;;;;;;;;;24.71;35.92;99706.44;1086567;47;19938;-86
2023/07/22 11:01:24;;;;;;;;;;;;;;;24.80;35.55;99699.47;1086568;54;19942;-86
2023/07/22 11:02:28;;;;;;;;;;;;;;;24.81;35.26;99701.13;1086981;39;20838;-88
2023/07/22 11:03:29;;;;;;;;;;;;;;;24.86;35.10;99700.41;1086640;47;19939;-88
2023/07/22 11:04:35;;;;;;;;;;;;;;;24.99;34.93;99704.69;1086622;54;19968;-88
2023/07/22 11:05:52;;;;;;;;;;;;;;;25.23;34.69;99697.16;1086548;47;19945;-89
2023/07/22 11:06:56;;;;;;;;;;;;;;;25.27;34.93;99690.09;1086487;54;20775;-87
2023/07/22 11:08:03;;;;;;;;;;;;;;;25.28;35.18;99699.13;1086528;47;19943;-87
2023/07/22 11:09:04;;;;;;;;;;;;;;;25.40;34.72;99699.09;1086618;54;19977;-87
2023/07/22 11:10:15;;;;;;;;;;;;;;;25.47;34.81;99694.25;1086614;47;19995;-87
2023/07/22 11:11:19;;;;;;;;;;;;;;;25.43;35.22;99704.03;1086535;47;19939;-89
2023/07/22 11:12:22;;;;;;;;;;;;;;;25.29;34.97;99696.16;1087559;39;21111;-87
2023/07/22 11:13:29;;;;;;;;;;;;;;;25.28;35.29;99699.13;1086619;54;20030;-86
2023/07/22 11:14:31;;;;;;;;;;;;;;;25.26;35.28;99693.91;1086590;47;19943;-88
2023/07/22 11:15:34;;;;;;;;;;;;;;;24.96;35.83;99697.03;1086659;51;19942;-88
2023/07/22 11:16:35;;;;;;;;;;;;;;;24.99;35.99;99691.03;1086633;54;19943;-86
2023/07/22 11:17:40;;;;;;;;;;;;;;;25.05;35.79;99690.88;1086429;46;19965;-88
2023/07/22 11:18:41;;;;;;;;;;;;;;;24.98;35.89;99695.69;1086590;54;19942;-86
2023/07/22 11:19:45;;;;;;;;;;;;;;;24.98;35.67;99687.47;1086751;47;19942;-86
2023/07/22 11:20:45;;;;;;;;;;;;;;;24.82;35.58;99680.94;1086732;47;19943;-86
2023/07/22 11:21:50;;;;;;;;;;;;;;;24.85;35.81;99685.06;1086752;54;19943;-86
2023/07/22 11:22:50;;;;;;;;;;;;;;;24.91;36.01;99681.38;1086507;47;19942;-86
2023/07/22 11:23:54;;;;;;;;;;;;;;;25.19;35.55;99677.69;1086593;47;19942;-85
2023/07/22 11:24:55;;;;;;;;;;;;;;;25.25;34.91;99678.59;1086483;47;19938;-86
2023/07/22 11:25:59;;;;;;;;;;;;;;;25.21;34.84;99677.44;1086521;54;19998;-87
2023/07/22 11:27:02;;;;;;;;;;;;;;;25.38;34.67;99685.59;1086365;54;19942;-89
2023/07/22 11:28:06;;;;;;;;;;;;;;;25.27;35.07;99679.16;1086673;54;19943;-87
2023/07/22 11:29:09;;;;;;;;;;;;;;;25.18;35.19;99676.03;1086613;54;19943;-86
2023/07/22 11:30:13;;;;;;;;;;;;;;;25.37;35.05;99682.06;1086675;54;19994;-86
2023/07/22 11:31:14;;;;;;;;;;;;;;;25.45;34.64;99682.72;1086681;54;19969;-86
2023/07/22 11:32:19;;;;;;;;;;;;;;;25.55;34.33;99688.34;1086612;47;19945;-91
2023/07/22 11:33:19;;;;;;;;;;;;;;;25.68;33.82;99671.56;1086561;54;19976;-87
2023/07/22 11:34:25;;;;;;;;;;;;;;;25.64;33.78;99673.13;1086792;47;19938;-89
2023/07/22 11:35:27;;;;;;;;;;;;;;;25.79;33.60;99666.22;1087113;54;19943;-88
2023/07/22 11:36:31;;;;;;;;;;;;;;;25.87;33.31;99664.91;1087088;54;19943;-87
2023/07/22 11:37:33;;;;;;;;;;;;;;;26.06;33.22;99668.16;1086989;54;19942;-87
2023/07/22 11:38:36;;;;;;;;;;;;;;;26.18;33.02;99663.38;1086861;54;19958;-87
2023/07/22 11:39:37;;;;;;;;;;;;;;;25.98;33.30;99663.97;1087087;54;19942;-86
2023/07/22 11:40:41;;;;;;;;;;;;;;;26.05;33.62;99655.56;1089102;39;20771;-88
2023/07/22 11:41:42;;;;;;;;;;;;;;;26.19;33.68;99654.06;1087014;54;19950;-87
2023/07/22 11:42:47;;;;;;;;;;;;;;;26.13;33.68;99663.34;1086738;47;19994;-86
2023/07/22 11:43:48;;;;;;;;;;;;;;;26.32;33.66;99652.84;1087029;54;19943;-86
2023/07/22 11:44:54;;;;;;;;;;;;;;;26.23;33.73;99649.75;1086945;47;19947;-85
2023/07/22 11:45:55;;;;;;;;;;;;;;;26.36;32.76;99655.88;1086869;47;19939;-86
2023/07/22 11:47:00;;;;;;;;;;;;;;;26.44;33.14;99645.28;1088260;39;21062;-86
2023/07/22 11:48:00;;;;;;;;;;;;;;;26.35;32.35;99651.50;1087864;39;20781;-86
2023/07/22 11:49:04;;;;;;;;;;;;;;;26.26;32.29;99651.94;1086856;47;19938;-87
2023/07/22 11:50:06;;;;;;;;;;;;;;;26.14;32.57;99646.63;1086953;47;20868;-85
2023/07/22 11:51:10;;;;;;;;;;;;;;;26.08;32.46;99642.16;1087011;54;19967;-87
2023/07/22 11:52:11;;;;;;;;;;;;;;;26.23;32.43;99644.28;1086868;47;19969;-86
2023/07/22 11:53:15;;;;;;;;;;;;;;;26.12;32.95;99643.31;1086889;54;19942;-87
2023/07/22 11:54:17;;;;;;;;;;;;;;;25.91;32.60;99650.47;1086907;47;19973;-86
2023/07/22 11:55:25;;;;;;;;;;;;;;;25.85;32.51;99646.03;1088371;39;20779;-84
2023/07/22 11:56:26;;;;;;;;;;;;;;;25.67;32.77;99648.00;1086905;46;20377;-87
2023/07/22 11:57:29;;;;;;;;;;;;;;;25.87;32.60;99646.59;1091081;39;21197;-86
2023/07/22 11:58:31;;;;;;;;;;;;;;;26.06;32.33;99640.78;1086794;47;19939;-86
2023/07/22 11:59:32;;;;;;;;;;;;;;;26.18;32.10;99635.19;1086965;39;20665;-86
2023/07/22 12:00:38;;;;;;;;;;;;;;;26.05;32.14;99631.72;1086961;47;19946;-87
2023/07/22 12:01:39;;;;;;;;;;;;;;;26.02;32.01;99640.47;1088301;39;20841;-85
2023/07/22 12:02:43;;;;;;;;;;;;;;;26.07;31.69;99635.03;1086816;54;19994;-85
2023/07/22 12:03:44;;;;;;;;;;;;;;;26.16;31.95;99639.00;1086856;47;19943;-87
2023/07/22 12:04:54;;;;;;;;;;;;;;;26.01;32.10;99636.91;1087016;47;19939;-87
2023/07/22 12:05:55;;;;;;;;;;;;;;;25.89;32.34;99628.00;1087348;39;20190;-86
2023/07/22 12:06:58;;;;;;;;;;;;;;;26.12;32.03;99631.56;1086882;54;19954;-86
2023/07/22 12:07:59;;;;;;;;;;;;;;;26.11;32.43;99625.25;1086785;46;20364;-86
2023/07/22 12:09:03;;;;;;;;;;;;;;;26.31;32.11;99623.78;1086706;47;20026;-88
2023/07/22 12:10:05;;;;;;;;;;;;;;;26.15;32.28;99631.06;1086765;47;19945;-87
2023/07/22 12:11:09;;;;;;;;;;;;;;;26.29;31.79;99615.84;1086842;54;19943;-85
2023/07/22 12:12:09;;;;;;;;;;;;;;;26.36;31.99;99609.31;1086767;47;19939;-87
2023/07/22 12:13:13;;;;;;;;;;;;;;;26.12;31.92;99626.09;1086814;54;19943;-85
2023/07/22 12:14:14;;;;;;;;;;;;;;;26.10;31.81;99618.13;1088300;39;20885;-85
2023/07/22 12:15:18;;;;;;;;;;;;;;;26.21;31.98;99619.06;1086844;47;19939;-87
2023/07/22 12:16:24;;;;;;;;;;;;;;;26.09;32.08;99623.84;1086854;54;19943;-86
2023/07/22 12:17:28;;;;;;;;;;;;;;;26.05;31.98;99622.69;1086792;54;19966;-86
2023/07/22 12:18:40;;;;;;;;;;;;;;;26.07;31.97;99623.28;1086915;54;19946;-86
2023/07/22 12:19:53;;;;;;;;;;;;;;;25.97;31.92;99627.56;1086791;47;19938;-88
2023/07/22 12:20:54;;;;;;;;;;;;;;;25.98;32.06;99620.16;1086796;47;20368;-85
2023/07/22 12:21:57;;;;;;;;;;;;;;;25.95;31.92;99623.41;1086908;47;19974;-85
2023/07/22 12:22:58;;;;;;;;;;;;;;;25.96;32.22;99614.94;1086759;54;19949;-86
2023/07/22 12:23:59;;;;;;;;;;;;;;;25.87;32.19;99615.66;1086877;54;19954;-86
2023/07/22 12:25:03;;;;;;;;;;;;;;;25.83;31.94;99615.34;1087246;39;20761;-86
2023/07/22 12:26:04;;;;;;;;;;;;;;;25.85;32.36;99610.44;1086779;47;19939;-86
2023/07/22 12:27:08;;;;;;;;;;;;;;;25.91;32.39;99614.88;1086680;47;19951;-87
2023/07/22 12:28:10;;;;;;;;;;;;;;;25.89;32.41;99606.09;1086628;54;19949;-88
2023/07/22 12:29:14;;;;;;;;;;;;;;;25.74;32.55;99614.13;1086855;54;19986;-87
2023/07/22 12:30:15;;;;;;;;;;;;;;;25.81;32.56;99610.13;1086786;54;19968;-88
2023/07/22 12:31:19;;;;;;;;;;;;;;;25.99;32.44;99611.66;1087850;39;20698;-86
2023/07/22 12:32:22;;;;;;;;;;;;;;;25.99;32.60;99617.16;1086802;54;19943;-86
2023/07/22 12:33:25;;;;;;;;;;;;;;;26.05;32.00;99609.81;1086839;47;19938;-88
2023/07/22 12:34:26;;;;;;;;;;;;;;;26.28;31.33;99603.22;1086776;47;19962;-87
2023/07/22 12:35:29;;;;;;;;;;;;;;;26.43;31.16;99594.31;1086931;47;19939;-87
2023/07/22 12:36:30;;;;;;;;;;;;;;;26.54;31.14;99595.25;1086904;47;19939;-87
2023/07/22 12:37:33;;;;;;;;;;;;;;;26.26;31.02;99591.69;1086797;47;19939;-87
2023/07/22 12:38:34;;;;;;;;;;;;;;;26.22;31.00;99604.28;1086724;47;19974;-86
2023/07/22 12:39:37;;;;;;;;;;;;;;;26.19;31.38;99604.78;1086845;47;19942;-86
2023/07/22 12:40:38;;;;;;;;;;;;;;;26.31;31.00;99602.72;1086786;47;20031;-86
2023/07/22 12:41:41;;;;;;;;;;;;;;;26.37;30.83;99600.00;1086745;47;19939;-86
2023/07/22 12:42:42;;;;;;;;;;;;;;;26.51;30.50;99590.28;1086759;54;20030;-87
2023/07/22 12:43:45;;;;;;;;;;;;;;;26.59;30.54;99587.03;1086874;54;20025;-88
2023/07/22 12:44:46;;;;;;;;;;;;;;;26.51;30.45;99595.75;1086661;47;19938;-85
2023/07/22 12:45:49;;;;;;;;;;;;;;;26.58;30.65;99584.56;1086699;47;19938;-85
2023/07/22 12:46:50;;;;;;;;;;;;;;;26.58;30.70;99599.09;1086695;47;19939;-86
2023/07/22 12:47:56;;;;;;;;;;;;;;;26.59;30.67;99598.00;1086728;54;19943;-87
2023/07/22 12:48:57;;;;;;;;;;;;;;;26.66;30.58;99583.25;1086712;46;19946;-87
2023/07/22 12:50:00;;;;;;;;;;;;;;;26.56;30.76;99582.06;1087178;39;20804;-88
2023/07/22 12:51:01;;;;;;;;;;;;;;;26.54;30.95;99578.81;1086800;54;20038;-86
2023/07/22 12:52:08;;;;;;;;;;;;;;;26.78;30.75;99581.19;1086803;47;19938;-88
2023/07/22 12:53:10;;;;;;;;;;;;;;;26.86;30.79;99574.38;1086744;47;20821;-87
2023/07/22 12:54:14;;;;;;;;;;;;;;;26.73;30.55;99576.47;1086779;47;19950;-86
2023/07/22 12:55:14;;;;;;;;;;;;;;;26.98;30.42;99574.19;1086879;46;19939;-86
2023/07/22 12:56:18;;;;;;;;;;;;;;;27.11;30.30;99576.47;1086758;46;19942;-87
2023/07/22 12:57:19;;;;;;;;;;;;;;;27.17;29.83;99563.56;1086773;47;19938;-87
2023/07/22 12:58:22;;;;;;;;;;;;;;;27.16;30.19;99579.22;1086756;54;19976;-88
2023/07/22 12:59:23;;;;;;;;;;;;;;;27.14;29.72;99573.16;1086732;47;19946;-88
2023/07/22 13:00:23;;;;;;;;;;;;;;;27.02;29.89;99565.16;1086839;54;20024;-84
2023/07/22 13:01:27;;;;;;;;;;;;;;;27.04;30.22;99564.88;1086727;47;19965;-85
2023/07/22 13:02:28;;;;;;;;;;;;;;;26.94;30.15;99563.72;1087090;39;20203;-85
2023/07/22 13:03:33;;;;;;;;;;;;;;;26.90;30.58;99572.75;1086859;47;19964;-85
2023/07/22 13:04:34;;;;;;;;;;;;;;;26.81;30.80;99577.06;1086747;54;19975;-85
2023/07/22 13:05:35;;;;;;;;;;;;;;;26.72;30.28;99574.00;1086648;47;19938;-86
2023/07/22 13:06:39;;;;;;;;;;;;;;;26.72;30.01;99572.06;1086761;54;19954;-87
2023/07/22 13:07:40;;;;;;;;;;;;;;;26.64;29.97;99567.06;1086675;47;19946;-85
2023/07/22 13:08:43;;;;;;;;;;;;;;;26.63;30.26;99565.41;1086696;54;19943;-87
2023/07/22 13:09:46;;;;;;;;;;;;;;;26.50;31.06;99574.09;1086684;47;19939;-85
2023/07/22 13:10:49;;;;;;;;;;;;;;;26.57;30.87;99561.81;1086689;54;19969;-88
2023/07/22 13:11:50;;;;;;;;;;;;;;;26.51;30.87;99562.03;1086787;47;21077;-85
2023/07/22 13:12:53;;;;;;;;;;;;;;;26.38;30.86;99564.16;1086657;54;19943;-86